| time (UTC) | temp F | wind direction | speed knots | gust knots | rain 1hr in | rain 24hr in | rain mn in | humidity % | barometer mb |
| 20260504100516 | 66 | 15 | 0.9 | 3.5 | 0.00 | 0.00 | 0.00 | 77 | 1016.1 |
| 20260504081516 | 69 | 45 | 0.9 | 2.6 | 0.00 | 0.00 | 0.00 | 75 | 1016.0 |
| 20260504080516 | 69 | 53 | 0.9 | 1.7 | 0.00 | 0.00 | 0.00 | 75 | 1015.9 |
| 20260504050516 | 71 | 0 | 0.0 | 0.0 | 0.00 | 0.00 | 0.00 | 72 | 1017.2 |
| 20260504045536 | 71 | 77 | 0.0 | 3.5 | 0.00 | 0.00 | 0.00 | 72 | 1017.1 |
| 20260504044536 | 71 | 67 | 0.9 | 3.5 | 0.00 | 0.00 | 0.00 | 72 | 1017.3 |
| 20260504043516 | 71 | 67 | 0.0 | 2.6 | 0.00 | 0.00 | 0.00 | 72 | 1017.3 |
| 20260504042516 | 71 | 69 | 0.9 | 3.5 | 0.00 | 0.00 | 0.00 | 72 | 1017.1 |
| 20260504041516 | 71 | 57 | 0.9 | 3.5 | 0.00 | 0.00 | 0.00 | 72 | 1017.4 |
| 20260504040516 | 71 | 77 | 0.9 | 2.6 | 0.00 | 0.00 | 0.00 | 72 | 1017.5 |
| 20260504035517 | 71 | 0 | 0.0 | 0.0 | 0.00 | 0.00 | 0.00 | 71 | 1017.6 |
| 20260504034516 | 71 | 25 | 0.0 | 0.9 | 0.00 | 0.00 | 0.00 | 71 | 1017.7 |
| 20260504033516 | 72 | 25 | 0.0 | 0.9 | 0.00 | 0.00 | 0.00 | 70 | 1017.6 |
| 20260504032538 | 72 | 0 | 0.0 | 1.7 | 0.00 | 0.00 | 0.00 | 69 | 1017.6 |
| 20260504031539 | 72 | 20 | 0.9 | 1.7 | 0.00 | 0.00 | 0.00 | 68 | 1017.6 |
| 20260504030516 | 72 | 11 | 0.9 | 2.6 | 0.00 | 0.00 | 0.00 | 68 | 1017.6 |
| 20260504025516 | 72 | 11 | 0.9 | 2.6 | 0.00 | 0.00 | 0.00 | 68 | 1017.4 |
| 20260504024516 | 72 | 31 | 0.9 | 3.5 | 0.00 | 0.00 | 0.00 | 68 | 1017.5 |
| 20260504023556 | 72 | 52 | 0.9 | 2.6 | 0.00 | 0.00 | 0.00 | 69 | 1017.3 |
| 20260504022516 | 72 | 30 | 0.9 | 2.6 | 0.00 | 0.00 | 0.00 | 68 | 1017.2 |
| 20260504021518 | 73 | 5 | 0.9 | 1.7 | 0.00 | 0.00 | 0.00 | 68 | 1017.1 |
| 20260504020516 | 73 | 25 | 0.9 | 1.7 | 0.00 | 0.01 | 0.00 | 68 | 1017.1 |
| 20260504015516 | 73 | 16 | 0.9 | 2.6 | 0.00 | 0.01 | 0.00 | 68 | 1016.8 |
| 20260504014518 | 73 | 35 | 0.9 | 2.6 | 0.00 | 0.01 | 0.00 | 68 | 1016.8 |
| 20260504013516 | 73 | 44 | 0.9 | 2.6 | 0.00 | 0.01 | 0.00 | 70 | 1016.6 |
| 20260504012516 | 73 | 27 | 0.9 | 1.7 | 0.00 | 0.01 | 0.00 | 69 | 1016.4 |
| 20260504011517 | 73 | 17 | 0.9 | 1.7 | 0.00 | 0.01 | 0.00 | 69 | 1016.4 |
| 20260504010516 | 73 | 145 | 0.9 | 2.6 | 0.00 | 0.01 | 0.00 | 69 | 1016.2 |
| 20260504005516 | 73 | 46 | 0.9 | 4.3 | 0.00 | 0.01 | 0.00 | 69 | 1016.1 |
| 20260504004517 | 73 | 319 | 0.9 | 3.5 | 0.00 | 0.01 | 0.00 | 69 | 1016.1 |
| 20260504003539 | 73 | 24 | 0.9 | 8.7 | 0.00 | 0.01 | 0.00 | 68 | 1015.9 |
| 20260504002536 | 73 | 25 | 0.9 | 5.2 | 0.00 | 0.01 | 0.00 | 68 | 1016.0 |
| 20260504001516 | 74 | 324 | 0.9 | 4.3 | 0.00 | 0.01 | 0.00 | 68 | 1015.9 |
| 20260504000516 | 74 | 327 | 0.9 | 3.5 | 0.00 | 0.01 | 0.00 | 68 | 1015.6 |
| 20260503235516 | 74 | 333 | 2.6 | 6.1 | 0.00 | 0.01 | 0.00 | 68 | 1015.7 |
| 20260503234516 | 74 | 356 | 1.7 | 7.0 | 0.00 | 0.01 | 0.00 | 67 | 1015.6 |
| 20260503233516 | 75 | 322 | 1.7 | 9.6 | 0.00 | 0.01 | 0.00 | 67 | 1015.7 |
| 20260503232517 | 75 | 349 | 1.7 | 6.1 | 0.00 | 0.01 | 0.00 | 67 | 1015.8 |
| 20260503231516 | 75 | 328 | 2.6 | 8.7 | 0.00 | 0.01 | 0.00 | 66 | 1015.7 |
| 20260503230517 | 76 | 10 | 1.7 | 7.0 | 0.00 | 0.01 | 0.00 | 66 | 1015.7 |
| 20260503225516 | 76 | 9 | 1.7 | 9.6 | 0.00 | 0.01 | 0.00 | 65 | 1015.7 |
| 20260503224516 | 77 | 321 | 2.6 | 8.7 | 0.00 | 0.01 | 0.00 | 64 | 1015.7 |
| 20260503223516 | 76 | 338 | 1.7 | 9.6 | 0.00 | 0.01 | 0.00 | 65 | 1015.7 |
| 20260503222516 | 77 | 13 | 1.7 | 4.3 | 0.00 | 0.01 | 0.00 | 64 | 1015.8 |
| 20260503221518 | 77 | 336 | 2.6 | 7.0 | 0.00 | 0.01 | 0.00 | 63 | 1015.7 |
| 20260503220536 | 78 | 338 | 1.7 | 7.0 | 0.00 | 0.01 | 0.00 | 62 | 1015.6 |
| 20260503215516 | 78 | 358 | 1.7 | 5.2 | 0.00 | 0.01 | 0.00 | 62 | 1015.8 |
| 20260503214536 | 79 | 308 | 2.6 | 8.7 | 0.00 | 0.01 | 0.00 | 61 | 1015.8 |
| 20260503213516 | 79 | 357 | 1.7 | 8.7 | 0.00 | 0.01 | 0.00 | 60 | 1015.7 |
| 20260503212516 | 80 | 331 | 2.6 | 7.8 | 0.00 | 0.01 | 0.00 | 59 | 1015.7 |
| 20260503211516 | 80 | 310 | 2.6 | 7.8 | 0.00 | 0.02 | 0.00 | 59 | 1015.8 |
| 20260503210516 | 79 | 340 | 2.6 | 7.8 | 0.00 | 0.02 | 0.00 | 60 | 1015.8 |
| 20260503205518 | 80 | 351 | 2.6 | 6.1 | 0.00 | 0.02 | 0.00 | 59 | 1015.8 |
| 20260503204516 | 81 | 303 | 2.6 | 8.7 | 0.00 | 0.03 | 0.00 | 58 | 1015.8 |
| 20260503203516 | 80 | 300 | 1.7 | 7.8 | 0.00 | 0.03 | 0.00 | 59 | 1015.9 |
| 20260503202516 | 81 | 1 | 1.7 | 8.7 | 0.00 | 0.04 | 0.00 | 59 | 1016.0 |
| 20260503201516 | 80 | 13 | 1.7 | 7.0 | 0.00 | 0.04 | 0.00 | 61 | 1016.0 |
| 20260503200516 | 80 | 353 | 1.7 | 4.3 | 0.00 | 0.05 | 0.00 | 58 | 1016.3 |
| 20260503195517 | 80 | 28 | 1.7 | 4.3 | 0.00 | 0.05 | 0.00 | 55 | 1016.5 |
| 20260503194558 | 79 | 12 | 1.7 | 4.3 | 0.00 | 0.06 | 0.00 | 56 | 1016.5 |
| 20260503193516 | 80 | 68 | 1.7 | 4.3 | 0.00 | 0.06 | 0.00 | 56 | 1016.6 |
| 20260503192516 | 79 | 55 | 0.9 | 6.1 | 0.00 | 0.06 | 0.00 | 57 | 1016.7 |
| 20260503191516 | 78 | 40 | 1.7 | 4.3 | 0.00 | 0.06 | 0.00 | 58 | 1017.1 |
| 20260503190516 | 79 | 58 | 1.7 | 5.2 | 0.00 | 0.09 | 0.00 | 57 | 1017.3 |
| 20260503185536 | 79 | 75 | 1.7 | 7.0 | 0.00 | 0.28 | 0.00 | 59 | 1017.5 |
| 20260503184516 | 78 | 22 | 2.6 | 6.1 | 0.00 | 0.33 | 0.00 | 59 | 1017.5 |
| 20260503183516 | 78 | 72 | 1.7 | 6.1 | 0.00 | 0.33 | 0.00 | 58 | 1017.7 |
| 20260503182516 | 77 | 56 | 1.7 | 4.3 | 0.00 | 0.33 | 0.00 | 60 | 1017.7 |
| 20260503181516 | 78 | 57 | 1.7 | 4.3 | 0.00 | 0.33 | 0.00 | 59 | 1017.8 |
| 20260503180516 | 78 | 38 | 1.7 | 7.0 | 0.00 | 0.33 | 0.00 | 58 | 1018.0 |
| 20260503175516 | 79 | 49 | 0.9 | 4.3 | 0.00 | 0.33 | 0.00 | 59 | 1018.1 |
| 20260503174516 | 78 | 18 | 1.7 | 6.1 | 0.00 | 0.33 | 0.00 | 59 | 1018.0 |
| 20260503173516 | 78 | 51 | 1.7 | 3.5 | 0.00 | 0.33 | 0.00 | 59 | 1018.1 |
| 20260503172516 | 77 | 77 | 1.7 | 4.3 | 0.00 | 0.33 | 0.00 | 60 | 1018.2 |
| 20260503171516 | 77 | 55 | 1.7 | 4.3 | 0.00 | 0.33 | 0.00 | 62 | 1018.4 |
| 20260503170516 | 76 | 66 | 1.7 | 6.1 | 0.00 | 0.33 | 0.00 | 62 | 1018.4 |
| 20260503150516 | 70 | 31 | 2.6 | 7.8 | 0.00 | 0.33 | 0.00 | 68 | 1018.7 |
| 20260503130536 | 65 | 46 | 1.7 | 3.5 | 0.00 | 0.33 | 0.00 | 80 | 1017.9 |
| 20260503110517 | 64 | 27 | 2.6 | 4.3 | 0.00 | 0.33 | 0.00 | 81 | 1016.3 |